Time;durP1;ratioP1;P1;durP2;ratioP2;P2;SDS_P1;SDS_P2;PMS_P1;PMS_P2;Temp;Humidity;BMP_temperature;BMP_pressure;BME280_temperature;BME280_humidity;BME280_pressure;Samples;Min_cycle;Max_cycle;Signal;HPM_P1;HPM_P2
2023/03/05 00:01:33;;;;;;;15.88;3.70;;;;;;;6.27;100.00;101750.16;4944992;28;20054;-74
2023/03/05 00:04:02;;;;;;;9.32;3.22;;;;;;;6.25;100.00;101756.03;4946861;28;20058;-74
2023/03/05 00:06:30;;;;;;;10.85;2.83;;;;;;;6.25;100.00;101755.22;4942961;28;20536;-75
2023/03/05 00:08:57;;;;;;;15.05;3.33;;;;;;;6.23;100.00;101744.56;4928594;29;20047;-73
2023/03/05 00:11:26;;;;;;;20.45;3.53;;;;;;;6.24;100.00;101751.66;4945396;28;20397;-74
2023/03/05 00:13:54;;;;;;;15.82;3.40;;;;;;;6.15;100.00;101750.19;4945135;28;20055;-74
2023/03/05 00:16:21;;;;;;;15.15;3.38;;;;;;;6.19;100.00;101746.41;4946338;28;20062;-74
2023/03/05 00:18:48;;;;;;;16.02;3.25;;;;;;;6.18;100.00;101744.00;4945667;28;20075;-73
2023/03/05 00:21:26;;;;;;;18.08;3.08;;;;;;;6.15;100.00;101741.94;4944491;28;20105;-73
2023/03/05 00:23:54;;;;;;;14.82;3.60;;;;;;;6.15;100.00;101729.00;4946225;28;20047;-73
2023/03/05 00:26:23;;;;;;;15.55;3.30;;;;;;;6.17;100.00;101734.16;4943766;28;20058;-75
2023/03/05 00:28:51;;;;;;;15.00;3.17;;;;;;;6.16;100.00;101738.03;4945479;28;20061;-74
2023/03/05 00:31:23;;;;;;;15.00;4.78;;;;;;;6.14;100.00;101732.88;4944866;28;20480;-75
2023/03/05 00:33:54;;;;;;;17.20;3.53;;;;;;;6.12;100.00;101731.63;4945264;28;20105;-74
2023/03/05 00:36:21;;;;;;;16.08;3.70;;;;;;;6.12;100.00;101723.38;4942206;28;20498;-73
2023/03/05 00:38:48;;;;;;;22.40;6.75;;;;;;;6.11;100.00;101730.03;4944349;28;20055;-73
2023/03/05 00:41:14;;;;;;;16.83;3.47;;;;;;;6.11;100.00;101722.56;4946238;28;20055;-73
2023/03/05 00:43:41;;;;;;;12.77;3.22;;;;;;;5.98;100.00;101731.16;4947128;28;20059;-73
2023/03/05 00:46:07;;;;;;;16.77;3.30;;;;;;;6.00;100.00;101728.88;4945275;28;20158;-73
2023/03/05 00:48:34;;;;;;;14.18;3.75;;;;;;;6.01;100.00;101722.25;4946993;28;20126;-75
2023/03/05 00:51:01;;;;;;;12.95;3.10;;;;;;;5.92;100.00;101718.78;4945330;28;20047;-73
2023/03/05 00:53:27;;;;;;;18.33;3.47;;;;;;;5.93;100.00;101717.63;4928318;29;20061;-74
2023/03/05 00:55:54;;;;;;;11.68;3.42;;;;;;;5.88;100.00;101713.19;4945034;28;20055;-75
2023/03/05 00:58:20;;;;;;;14.85;3.45;;;;;;;5.95;100.00;101712.59;4945466;28;20043;-75
2023/03/05 01:00:49;;;;;;;11.32;3.28;;;;;;;5.91;100.00;101703.47;4927814;28;20827;-72
2023/03/05 01:03:17;;;;;;;9.50;2.60;;;;;;;5.89;100.00;101697.50;4945262;28;20047;-73
2023/03/05 01:05:43;;;;;;;13.23;3.30;;;;;;;5.81;100.00;101688.22;4943818;28;20087;-74
2023/03/05 01:08:10;;;;;;;8.77;2.80;;;;;;;5.79;100.00;101693.22;4946407;28;20049;-76
2023/03/05 01:10:37;;;;;;;13.70;2.67;;;;;;;5.72;100.00;101698.47;4924210;28;20987;-76
2023/03/05 01:13:03;;;;;;;10.68;3.05;;;;;;;5.81;100.00;101695.63;4944092;28;20079;-73
2023/03/05 01:15:30;;;;;;;13.27;3.15;;;;;;;5.77;100.00;101694.72;4941204;28;20585;-73
2023/03/05 01:17:56;;;;;;;13.65;3.22;;;;;;;5.73;100.00;101691.06;4944081;28;20210;-74
2023/03/05 01:20:23;;;;;;;12.77;3.60;;;;;;;5.75;100.00;101691.50;4945587;28;20063;-75
2023/03/05 01:22:50;;;;;;;12.88;3.05;;;;;;;5.78;100.00;101688.06;4944890;28;20059;-74
2023/03/05 01:25:17;;;;;;;10.40;3.17;;;;;;;5.80;100.00;101699.53;4945700;28;20485;-75
2023/03/05 01:27:44;;;;;;;13.07;2.70;;;;;;;5.74;100.00;101682.44;4945822;28;20043;-74
2023/03/05 01:30:13;;;;;;;13.55;3.15;;;;;;;5.78;100.00;101685.31;4947350;28;20059;-73
2023/03/05 01:32:39;;;;;;;13.07;3.72;;;;;;;5.74;100.00;101678.91;4944510;28;20148;-74
2023/03/05 01:35:14;;;;;;;11.02;3.30;;;;;;;5.69;100.00;101676.38;4946193;28;20052;-74
2023/03/05 01:37:40;;;;;;;12.02;3.00;;;;;;;5.74;100.00;101678.91;4945537;28;20051;-75
2023/03/05 01:40:08;;;;;;;14.55;3.08;;;;;;;5.71;100.00;101674.91;4946226;28;20051;-74
2023/03/05 01:42:35;;;;;;;9.88;2.72;;;;;;;5.65;100.00;101680.97;4945657;28;20055;-73
2023/03/05 01:45:01;;;;;;;10.30;2.70;;;;;;;5.64;100.00;101668.38;4945562;28;20059;-74
2023/03/05 01:47:28;;;;;;;12.32;2.78;;;;;;;5.57;100.00;101665.41;4945928;28;20066;-74
2023/03/05 01:49:55;;;;;;;16.08;2.90;;;;;;;5.57;100.00;101663.44;4928376;29;20053;-74
2023/03/05 01:52:24;;;;;;;12.18;2.95;;;;;;;5.62;100.00;101665.16;4945282;28;20057;-76
2023/03/05 01:54:55;;;;;;;13.95;3.00;;;;;;;5.61;100.00;101663.56;4945411;28;20051;-73
2023/03/05 01:57:28;;;;;;;14.30;2.88;;;;;;;5.63;100.00;101662.06;4946283;28;20051;-74
2023/03/05 02:00:00;;;;;;;11.95;2.85;;;;;;;5.53;100.00;101659.00;4946966;28;20374;-74
2023/03/05 02:02:26;;;;;;;14.98;2.60;;;;;;;5.56;100.00;101655.56;4944519;28;20608;-74
2023/03/05 02:05:01;;;;;;;11.15;2.35;;;;;;;5.53;100.00;101648.00;4928433;28;20059;-73
2023/03/05 02:07:28;;;;;;;11.80;2.58;;;;;;;5.56;100.00;101655.56;4948781;28;20155;-73
2023/03/05 02:09:55;;;;;;;14.90;3.28;;;;;;;5.51;100.00;101631.06;4949314;28;20054;-75
2023/03/05 02:12:22;;;;;;;9.05;2.47;;;;;;;5.52;100.00;101638.97;4949774;28;20078;-75
2023/03/05 02:14:57;;;;;;;11.55;2.40;;;;;;;5.55;100.00;101641.03;4949166;28;20406;-73
2023/03/05 02:17:26;;;;;;;14.02;2.60;;;;;;;5.53;100.00;101632.31;4943759;28;20427;-73
2023/03/05 02:20:01;;;;;;;14.13;2.03;;;;;;;5.55;100.00;101629.22;4949858;28;20054;-74
2023/03/05 02:22:27;;;;;;;8.17;2.30;;;;;;;5.58;100.00;101625.81;4948747;28;20070;-73
2023/03/05 02:24:53;;;;;;;9.25;2.13;;;;;;;5.58;100.00;101628.56;4949342;28;20065;-75
2023/03/05 02:27:33;;;;;;;13.15;2.30;;;;;;;5.57;100.00;101615.97;4930863;28;20047;-73
2023/03/05 02:30:01;;;;;;;11.70;2.20;;;;;;;5.56;100.00;101625.38;4948685;28;20142;-73
2023/03/05 02:32:27;;;;;;;7.40;2.35;;;;;;;5.53;100.00;101613.09;4948075;28;20169;-75
2023/03/05 02:34:54;;;;;;;10.68;2.45;;;;;;;5.48;100.00;101614.13;4948497;28;20082;-74
2023/03/05 02:37:20;;;;;;;7.00;2.17;;;;;;;5.47;100.00;101607.03;4947858;28;20071;-73
2023/03/05 02:39:47;;;;;;;11.75;2.70;;;;;;;5.48;100.00;101605.09;4947008;28;20054;-73
2023/03/05 02:42:13;;;;;;;7.75;2.10;;;;;;;5.49;100.00;101612.19;4948507;28;20051;-73
2023/03/05 02:44:39;;;;;;;14.55;2.63;;;;;;;5.47;100.00;101610.94;4947230;28;20061;-75
2023/03/05 02:47:06;;;;;;;13.65;2.40;;;;;;;5.49;100.00;101606.69;4945217;28;20051;-75
2023/03/05 02:49:33;;;;;;;11.07;2.47;;;;;;;5.51;100.00;101604.41;4944841;28;20699;-76
2023/03/05 02:51:59;;;;;;;10.05;2.05;;;;;;;5.45;100.00;101600.28;4951683;28;20054;-75
2023/03/05 02:54:26;;;;;;;16.13;2.70;;;;;;;5.42;100.00;101598.22;4950258;29;20055;-75
2023/03/05 02:56:52;;;;;;;13.90;2.90;;;;;;;5.39;100.00;101596.16;4950077;29;20054;-73
2023/03/05 02:59:19;;;;;;;10.30;2.17;;;;;;;5.34;100.00;101591.69;4951287;29;20051;-72
2023/03/05 03:01:45;;;;;;;9.18;2.10;;;;;;;5.37;100.00;101587.50;4950506;29;20057;-73
2023/03/05 03:04:12;;;;;;;15.23;2.53;;;;;;;5.38;100.00;101584.41;4951286;29;20051;-73
2023/03/05 03:06:38;;;;;;;11.35;2.67;;;;;;;5.37;100.00;101574.53;4950900;29;20134;-74
2023/03/05 03:09:05;;;;;;;6.97;2.08;;;;;;;5.37;100.00;101577.28;4943681;29;20051;-73
2023/03/05 03:11:31;;;;;;;12.68;3.28;;;;;;;5.40;100.00;101571.13;4950762;29;20492;-74
2023/03/05 03:13:59;;;;;;;18.55;3.13;;;;;;;5.37;100.00;101573.75;4950005;29;20063;-73
2023/03/05 03:16:26;;;;;;;7.07;1.40;;;;;;;5.31;100.00;101570.41;4947743;28;20078;-74
2023/03/05 03:18:52;;;;;;;17.20;4.28;;;;;;;5.39;100.00;101569.53;4950196;29;20524;-72
2023/03/05 03:21:21;;;;;;;23.73;3.85;;;;;;;5.33;100.00;101564.59;4950213;28;20070;-73
2023/03/05 03:23:48;;;;;;;9.48;2.92;;;;;;;5.28;100.00;101562.91;4949651;28;20062;-73
2023/03/05 03:26:16;;;;;;;15.93;3.15;;;;;;;5.23;100.00;101554.06;4957778;28;20054;-75
2023/03/05 03:28:43;;;;;;;13.35;3.40;;;;;;;5.19;100.00;101551.22;4941505;29;20055;-73
2023/03/05 03:31:09;;;;;;;12.50;3.70;;;;;;;5.21;100.00;101545.38;4957407;28;20062;-74
2023/03/05 03:33:36;;;;;;;9.13;3.25;;;;;;;5.19;100.00;101547.66;4959544;28;20062;-75
2023/03/05 03:36:03;;;;;;;6.28;3.33;;;;;;;5.15;100.00;101547.56;4955781;28;20050;-73
2023/03/05 03:38:30;;;;;;;15.07;3.90;;;;;;;5.11;100.00;101543.09;4953570;28;20412;-72
2023/03/05 03:40:56;;;;;;;20.67;5.15;;;;;;;5.22;100.00;101545.03;4953537;28;20058;-73
2023/03/05 03:43:23;;;;;;;15.48;4.45;;;;;;;5.26;100.00;101540.47;4953622;28;20051;-73
2023/03/05 03:45:49;;;;;;;14.45;4.90;;;;;;;5.31;100.00;101545.72;4953008;28;20058;-74
2023/03/05 03:48:16;;;;;;;17.17;4.70;;;;;;;5.35;100.00;101534.88;4952672;28;20403;-74
2023/03/05 03:50:43;;;;;;;13.20;4.63;;;;;;;5.39;100.00;101535.78;4955756;28;20494;-74
2023/03/05 03:53:13;;;;;;;16.33;4.28;;;;;;;5.41;100.00;101534.28;4932233;29;20483;-74
2023/03/05 03:55:49;;;;;;;18.80;4.82;;;;;;;5.37;100.00;101527.88;4954723;28;20061;-74
2023/03/05 03:58:16;;;;;;;12.73;4.05;;;;;;;5.37;100.00;101522.41;4948164;28;20822;-74
2023/03/05 04:00:42;;;;;;;12.70;3.58;;;;;;;5.25;100.00;101514.19;4951464;28;20055;-74
2023/03/05 04:03:09;;;;;;;14.43;4.32;;;;;;;5.21;100.00;101499.56;4948897;28;20055;-74
2023/03/05 04:05:35;;;;;;;8.45;2.50;;;;;;;5.20;100.00;101514.41;4950818;28;20058;-73
2023/03/05 04:08:02;;;;;;;13.23;4.30;;;;;;;5.16;100.00;101510.75;4950494;28;20047;-76
2023/03/05 04:10:29;;;;;;;15.73;4.30;;;;;;;5.13;100.00;101503.19;4950421;28;20134;-73
2023/03/05 04:12:55;;;;;;;19.73;4.55;;;;;;;5.10;100.00;101501.13;4950116;28;20052;-73
2023/03/05 04:15:22;;;;;;;17.25;4.28;;;;;;;5.11;100.00;101496.44;4950802;28;20522;-75
2023/03/05 04:17:48;;;;;;;14.35;4.63;;;;;;;5.03;100.00;101491.88;4950932;28;20057;-74
2023/03/05 04:20:15;;;;;;;14.90;4.35;;;;;;;5.08;100.00;101492.44;4953275;28;20051;-73
2023/03/05 04:22:42;;;;;;;17.20;4.72;;;;;;;5.02;100.00;101493.81;4958330;28;20084;-74
2023/03/05 04:25:09;;;;;;;18.35;4.55;;;;;;;4.99;100.00;101491.75;4965168;28;20054;-73
2023/03/05 04:27:36;;;;;;;9.68;2.50;;;;;;;4.87;100.00;101486.22;4960270;28;20055;-73
2023/03/05 04:30:03;;;;;;;23.20;4.18;;;;;;;4.91;100.00;101498.16;4962991;28;20058;-76
2023/03/05 04:32:30;;;;;;;17.05;4.70;;;;;;;4.96;100.00;101486.94;4954155;28;20057;-75
2023/03/05 04:34:57;;;;;;;17.17;4.70;;;;;;;4.99;100.00;101490.94;4952759;28;20379;-73
2023/03/05 04:37:24;;;;;;;17.35;4.60;;;;;;;5.00;100.00;101487.84;4956141;28;20078;-74
2023/03/05 04:39:52;;;;;;;12.00;3.45;;;;;;;4.98;100.00;101492.91;4956276;28;20054;-74
2023/03/05 04:42:19;;;;;;;15.60;4.13;;;;;;;5.02;100.00;101493.81;4947597;28;20046;-72
2023/03/05 04:44:48;;;;;;;13.20;4.28;;;;;;;5.06;100.00;101486.50;4963535;28;20650;-73
2023/03/05 04:47:15;;;;;;;8.45;3.13;;;;;;;5.00;100.00;101482.38;4955488;28;20051;-73
2023/03/05 04:49:42;;;;;;;16.75;4.53;;;;;;;4.93;100.00;101475.88;4956616;28;20231;-74
2023/03/05 04:52:13;;;;;;;16.20;3.92;;;;;;;4.93;100.00;101473.13;4946771;28;20055;-74
2023/03/05 04:54:40;;;;;;;14.02;4.28;;;;;;;4.89;100.00;101467.50;4931991;29;20058;-73
2023/03/05 04:57:07;;;;;;;14.85;3.10;;;;;;;4.81;100.00;101471.16;4960545;28;20490;-74
2023/03/05 04:59:35;;;;;;;8.77;3.67;;;;;;;4.75;100.00;101458.81;4950145;28;20062;-73
2023/03/05 05:02:02;;;;;;;16.15;5.03;;;;;;;4.73;100.00;101458.34;4955197;28;20058;-73
2023/03/05 05:04:29;;;;;;;1.73;1.55;;;;;;;4.65;100.00;101461.97;4957879;28;20130;-72
2023/03/05 05:06:56;;;;;;;9.43;2.85;;;;;;;4.70;100.00;101458.22;4955899;28;20074;-72
2023/03/05 05:09:24;;;;;;;13.35;4.57;;;;;;;4.77;100.00;101464.75;4954905;28;20043;-74
2023/03/05 05:11:50;;;;;;;12.38;3.75;;;;;;;4.80;100.00;101475.03;4957513;28;20062;-73
2023/03/05 05:14:17;;;;;;;17.50;4.88;;;;;;;4.78;100.00;101465.53;4951171;28;20047;-72
2023/03/05 05:16:44;;;;;;;12.93;4.43;;;;;;;4.78;100.00;101471.84;4957302;28;20071;-73
2023/03/05 05:19:10;;;;;;;15.48;4.28;;;;;;;4.78;100.00;101471.84;4953728;28;20162;-75
2023/03/05 05:21:37;;;;;;;15.98;4.35;;;;;;;4.76;100.00;101474.09;4952720;28;20058;-72
2023/03/05 05:24:04;;;;;;;13.13;3.97;;;;;;;4.72;100.00;101464.16;4956465;28;20146;-73
2023/03/05 05:26:30;;;;;;;12.88;3.58;;;;;;;4.73;100.00;101466.56;4945269;28;20127;-73
2023/03/05 05:28:57;;;;;;;13.45;4.32;;;;;;;4.72;100.00;101462.22;4949926;28;20079;-73
2023/03/05 05:31:23;;;;;;;14.27;4.47;;;;;;;4.77;100.00;101464.75;4952317;28;20048;-75
2023/03/05 05:33:50;;;;;;;16.75;4.43;;;;;;;4.66;100.00;101446.34;4957424;28;20105;-71
2023/03/05 05:36:18;;;;;;;11.98;3.83;;;;;;;4.74;100.00;101451.72;4949962;28;20051;-72
2023/03/05 05:38:44;;;;;;;14.68;4.07;;;;;;;4.71;100.00;101446.13;4948707;28;20454;-75
2023/03/05 05:41:14;;;;;;;11.63;3.55;;;;;;;4.68;100.00;101450.34;4950652;28;20057;-72
2023/03/05 05:43:41;;;;;;;11.63;4.20;;;;;;;4.72;100.00;101451.25;4956728;28;20134;-73
2023/03/05 05:46:11;;;;;;;13.90;3.80;;;;;;;4.71;100.00;101448.84;4959820;28;20053;-73
2023/03/05 05:48:39;;;;;;;17.73;3.92;;;;;;;4.68;100.00;101450.34;4959151;28;20390;-73
2023/03/05 05:51:11;;;;;;;13.98;3.75;;;;;;;4.71;100.00;101449.66;4955933;28;20142;-74
2023/03/05 05:53:38;;;;;;;9.05;3.80;;;;;;;4.69;100.00;101446.47;4957010;28;20047;-74
2023/03/05 05:56:06;;;;;;;15.32;3.75;;;;;;;4.70;100.00;101442.56;4951915;28;20138;-73
2023/03/05 05:58:32;;;;;;;12.32;3.72;;;;;;;4.70;100.00;101447.25;4956753;28;20455;-73
2023/03/05 06:00:59;;;;;;;13.38;4.25;;;;;;;4.69;100.00;101451.94;4954670;28;20055;-73
2023/03/05 06:03:26;;;;;;;15.00;4.47;;;;;;;4.68;100.00;101452.28;4954843;28;20506;-73
2023/03/05 06:05:53;;;;;;;21.90;4.53;;;;;;;4.66;100.00;101440.88;4955259;28;20051;-73
2023/03/05 06:08:19;;;;;;;9.38;3.03;;;;;;;4.61;100.00;101443.81;4939272;28;20050;-72
2023/03/05 06:10:53;;;;;;;13.05;4.50;;;;;;;4.53;100.00;101437.28;4948188;28;20070;-72
2023/03/05 06:13:20;;;;;;;12.55;4.72;;;;;;;4.59;100.00;101440.63;4954121;28;20047;-72
2023/03/05 06:15:55;;;;;;;14.15;4.43;;;;;;;4.62;100.00;101439.91;4956905;28;20066;-74
2023/03/05 06:18:22;;;;;;;16.60;5.30;;;;;;;4.59;100.00;101448.84;4953694;28;20054;-73
2023/03/05 06:21:00;;;;;;;16.60;4.78;;;;;;;4.60;100.00;101437.56;4958186;28;20532;-71
2023/03/05 06:23:27;;;;;;;17.50;4.90;;;;;;;4.59;100.00;101435.94;4955036;28;20055;-73
2023/03/05 06:25:54;;;;;;;15.48;5.03;;;;;;;4.59;100.00;101437.88;4952041;28;20516;-72
2023/03/05 06:28:21;;;;;;;19.23;5.30;;;;;;;4.62;100.00;101446.22;4951090;28;20043;-73
2023/03/05 06:30:47;;;;;;;14.00;4.68;;;;;;;4.62;100.00;101448.97;4952831;28;20062;-71
2023/03/05 06:33:14;;;;;;;15.20;4.50;;;;;;;4.60;100.00;101439.47;4952528;28;20074;-73
2023/03/05 06:35:40;;;;;;;13.75;4.68;;;;;;;4.60;100.00;101436.75;4955391;28;20507;-74
2023/03/05 06:38:07;;;;;;;21.15;4.72;;;;;;;4.64;100.00;101445.88;4952888;28;20062;-73
2023/03/05 06:40:38;;;;;;;18.50;4.70;;;;;;;4.63;100.00;101436.06;4952450;28;20051;-75
2023/03/05 06:43:04;;;;;;;15.93;4.90;;;;;;;4.64;100.00;101438.47;4951948;28;20108;-72
2023/03/05 06:45:31;;;;;;;18.80;4.30;;;;;;;4.63;100.00;101436.84;4953338;28;20047;-72
2023/03/05 06:47:57;;;;;;;18.05;5.75;;;;;;;4.71;100.00;101437.91;4951225;28;20062;-73
2023/03/05 06:50:24;;;;;;;20.35;4.80;;;;;;;4.75;100.00;101436.06;4950868;28;20062;-73
2023/03/05 06:52:51;;;;;;;6.50;2.28;;;;;;;4.67;100.00;101434.25;4951244;28;20043;-73
2023/03/05 06:55:18;;;;;;;15.55;4.25;;;;;;;4.73;100.00;101433.66;4952735;28;20469;-73
2023/03/05 06:57:44;;;;;;;17.98;4.45;;;;;;;4.77;100.00;101431.06;4933781;29;20047;-73
2023/03/05 07:00:11;;;;;;;18.42;4.45;;;;;;;4.78;100.00;101435.38;4949885;28;20039;-73
2023/03/05 07:02:38;;;;;;;20.35;4.80;;;;;;;4.74;100.00;101432.53;4951227;28;20058;-73
2023/03/05 07:05:06;;;;;;;11.18;4.45;;;;;;;4.78;100.00;101430.72;4950385;28;20051;-73
2023/03/05 07:07:33;;;;;;;17.55;4.90;;;;;;;4.81;100.00;101427.28;4950777;28;20043;-73
2023/03/05 07:10:00;;;;;;;18.15;5.22;;;;;;;4.77;100.00;101431.88;4951144;28;20063;-73
2023/03/05 07:12:26;;;;;;;19.60;4.97;;;;;;;4.86;100.00;101424.31;4949766;28;20419;-73
2023/03/05 07:14:53;;;;;;;14.85;4.85;;;;;;;4.84;100.00;101420.31;4946886;28;20055;-73
2023/03/05 07:17:20;;;;;;;13.95;4.95;;;;;;;4.84;100.00;101426.63;4951039;28;20059;-74
2023/03/05 07:19:46;;;;;;;14.25;4.72;;;;;;;4.87;100.00;101419.63;4951031;28;20058;-73
2023/03/05 07:22:13;;;;;;;18.27;5.25;;;;;;;4.92;100.00;101424.88;4950390;28;20047;-73
2023/03/05 07:24:39;;;;;;;21.77;5.15;;;;;;;5.00;100.00;101424.00;4949476;28;20055;-73
2023/03/05 07:27:06;;;;;;;11.65;4.10;;;;;;;4.88;100.00;101419.31;4952589;28;20085;-74
2023/03/05 07:29:32;;;;;;;12.85;4.53;;;;;;;4.96;100.00;101420.31;4950565;28;20043;-73
2023/03/05 07:31:59;;;;;;;21.23;5.40;;;;;;;5.05;100.00;101415.53;4936335;28;20553;-70
2023/03/05 07:34:26;;;;;;;5.72;2.05;;;;;;;4.87;100.00;101419.63;4950336;28;20055;-73
2023/03/05 07:36:52;;;;;;;15.27;4.85;;;;;;;5.05;100.00;101423.75;4956365;28;20055;-72
2023/03/05 07:39:19;;;;;;;11.57;4.20;;;;;;;4.95;100.00;101414.03;4950450;28;20047;-71
2023/03/05 07:41:46;;;;;;;15.18;5.07;;;;;;;5.02;100.00;101414.28;4947732;28;20054;-72
2023/03/05 07:44:13;;;;;;;12.20;4.47;;;;;;;5.05;100.00;101410.03;4951014;28;20047;-73
2023/03/05 07:46:40;;;;;;;20.90;4.90;;;;;;;5.08;100.00;101406.59;4954404;28;20073;-72
2023/03/05 07:49:07;;;;;;;20.77;5.35;;;;;;;5.15;100.00;101401.34;4951521;28;20101;-73
2023/03/05 07:51:33;;;;;;;18.13;4.38;;;;;;;5.11;100.00;101405.94;4949542;28;20057;-73
2023/03/05 07:54:00;;;;;;;10.43;3.22;;;;;;;5.19;100.00;101407.72;4958625;28;20082;-73
2023/03/05 07:56:34;;;;;;;13.98;4.57;;;;;;;5.23;100.00;101398.47;4948537;28;20584;-73
2023/03/05 07:59:03;;;;;;;15.10;4.57;;;;;;;5.33;100.00;101398.00;4950467;28;20051;-72
2023/03/05 08:01:31;;;;;;;13.25;4.15;;;;;;;5.35;100.00;101401.22;4954264;28;20054;-71
2023/03/05 08:03:57;;;;;;;20.67;5.85;;;;;;;5.38;100.00;101388.75;4953600;28;20502;-72
2023/03/05 08:06:24;;;;;;;21.02;5.25;;;;;;;5.43;100.00;101392.03;4960210;28;20101;-72
2023/03/05 08:08:50;;;;;;;14.85;4.95;;;;;;;5.36;100.00;101386.34;4952817;28;20047;-71
2023/03/05 08:11:17;;;;;;;15.73;5.22;;;;;;;5.50;100.00;101390.66;4957452;28;20066;-71
2023/03/05 08:13:44;;;;;;;17.08;6.20;;;;;;;5.59;100.00;101397.59;4953145;28;20082;-72
2023/03/05 08:16:13;;;;;;;24.27;7.03;;;;;;;5.66;100.00;101386.81;4934087;28;20135;-71
2023/03/05 08:18:40;;;;;;;16.25;6.63;;;;;;;5.65;100.00;101390.72;4954016;28;20051;-72
2023/03/05 08:21:15;;;;;;;16.65;6.15;;;;;;;5.61;100.00;101386.28;4950350;28;20437;-71
2023/03/05 08:23:41;;;;;;;17.42;6.90;;;;;;;5.62;100.00;101382.38;4952910;28;20054;-72
2023/03/05 08:26:18;;;;;;;20.75;7.60;;;;;;;5.62;100.00;101390.63;4950454;28;20429;-74
2023/03/05 08:28:44;;;;;;;19.42;7.80;;;;;;;5.60;100.00;101370.97;4953704;28;20047;-73
2023/03/05 08:31:12;;;;;;;15.88;7.05;;;;;;;5.64;100.00;101377.34;4949152;28;20421;-72
2023/03/05 08:33:39;;;;;;;16.65;6.50;;;;;;;5.59;100.00;101374.84;4948485;28;20078;-70
2023/03/05 08:36:07;;;;;;;19.48;7.97;;;;;;;5.63;100.00;101370.28;4949111;28;20059;-71
2023/03/05 08:38:34;;;;;;;7.50;2.58;;;;;;;5.61;100.00;101378.03;4949640;28;20047;-71
2023/03/05 08:41:01;;;;;;;17.15;7.32;;;;;;;5.58;100.00;101351.28;4952733;28;20047;-71
2023/03/05 08:43:29;;;;;;;13.80;6.35;;;;;;;5.64;100.00;101367.19;4949067;28;20395;-69
2023/03/05 08:45:58;;;;;;;18.00;7.30;;;;;;;5.64;100.00;101375.41;4948965;28;20078;-74
2023/03/05 08:48:25;;;;;;;18.42;7.07;;;;;;;5.72;100.00;101366.22;4954514;28;20054;-71
2023/03/05 08:50:52;;;;;;;15.55;6.80;;;;;;;5.74;100.00;101365.88;4934875;28;20047;-72
2023/03/05 08:53:18;;;;;;;19.55;7.45;;;;;;;5.77;100.00;101359.69;4951420;28;20074;-72
2023/03/05 08:55:56;;;;;;;16.13;6.68;;;;;;;5.75;100.00;101359.22;4952352;28;20144;-71
2023/03/05 08:58:23;;;;;;;21.05;6.95;;;;;;;5.75;100.00;101367.47;4950499;28;21070;-71
2023/03/05 09:00:50;;;;;;;16.13;6.65;;;;;;;5.86;100.00;101358.41;4951008;28;20073;-72
2023/03/05 09:03:17;;;;;;;6.32;3.42;;;;;;;5.80;100.00;101359.00;4950755;28;20821;-72
2023/03/05 09:05:43;;;;;;;9.80;4.55;;;;;;;5.80;100.00;101361.75;4950699;28;20078;-72
2023/03/05 09:08:10;;;;;;;18.52;6.88;;;;;;;5.82;100.00;101359.47;4934229;28;20073;-72
2023/03/05 09:10:37;;;;;;;14.07;5.07;;;;;;;5.81;100.00;101353.19;4950844;28;20058;-71
2023/03/05 09:13:03;;;;;;;12.20;5.28;;;;;;;5.81;100.00;101350.44;4952527;28;20047;-72
2023/03/05 09:15:30;;;;;;;11.50;4.65;;;;;;;5.77;100.00;101351.44;4951158;28;20051;-71
2023/03/05 09:17:58;;;;;;;13.45;5.82;;;;;;;5.72;100.00;101355.25;4948119;28;20055;-71
2023/03/05 09:20:25;;;;;;;17.77;7.32;;;;;;;5.78;100.00;101344.81;4953380;28;20090;-71
2023/03/05 09:22:51;;;;;;;13.50;4.18;;;;;;;5.71;100.00;101342.66;4945689;29;20130;-72
2023/03/05 09:25:18;;;;;;;13.13;5.47;;;;;;;5.71;100.00;101348.16;4952126;28;20047;-71
2023/03/05 09:27:44;;;;;;;23.35;7.60;;;;;;;5.81;100.00;101341.34;4953383;28;20058;-70
2023/03/05 09:30:12;;;;;;;18.15;8.30;;;;;;;5.85;100.00;101339.53;4951737;28;20043;-73
2023/03/05 09:32:39;;;;;;;21.52;8.18;;;;;;;5.85;100.00;101331.28;4952257;28;20061;-71
2023/03/05 09:35:06;;;;;;;13.65;6.07;;;;;;;5.71;100.00;101330.88;4948095;28;20043;-72
2023/03/05 09:37:33;;;;;;;11.50;5.13;;;;;;;5.65;100.00;101333.06;4951589;28;20054;-71
2023/03/05 09:39:59;;;;;;;9.73;4.07;;;;;;;5.66;100.00;101336.59;4951945;28;20058;-70
2023/03/05 09:42:32;;;;;;;20.92;8.55;;;;;;;5.72;100.00;101338.75;4951486;28;20055;-71
2023/03/05 09:45:14;;;;;;;19.10;7.78;;;;;;;5.76;100.00;101330.59;4950867;28;20425;-70
2023/03/05 09:48:20;;;;;;;20.70;7.25;;;;;;;5.76;100.00;101325.94;4950232;28;20062;-72
2023/03/05 09:50:51;;;;;;;16.38;6.10;;;;;;;5.87;100.00;101329.78;4952590;28;20051;-72
2023/03/05 09:53:27;;;;;;;8.45;3.28;;;;;;;5.82;100.00;101332.00;4950040;28;20082;-70
2023/03/05 09:55:56;;;;;;;13.80;4.53;;;;;;;5.86;100.00;101330.13;4951451;28;20130;-71
2023/03/05 09:58:39;;;;;;;17.85;4.22;;;;;;;5.86;100.00;101319.97;4951515;28;20133;-72
2023/03/05 10:01:15;;;;;;;15.13;5.68;;;;;;;6.01;100.00;101323.91;4949083;28;20536;-71
2023/03/05 10:03:51;;;;;;;11.85;5.28;;;;;;;6.05;100.00;101319.28;4951147;28;20055;-71
2023/03/05 10:06:23;;;;;;;7.55;3.30;;;;;;;6.03;100.00;101324.31;4950834;28;20130;-70
2023/03/05 10:08:54;;;;;;;14.73;5.50;;;;;;;6.05;100.00;101311.84;4951336;28;20058;-71
2023/03/05 10:11:41;;;;;;;4.43;2.25;;;;;;;6.03;100.00;101303.16;4951178;28;20047;-72
2023/03/05 10:14:16;;;;;;;13.77;4.72;;;;;;;6.23;100.00;101312.31;4949791;28;20051;-71
2023/03/05 10:16:49;;;;;;;12.30;5.07;;;;;;;6.38;100.00;101308.78;4950553;28;20150;-70
2023/03/05 10:19:33;;;;;;;10.82;3.97;;;;;;;6.60;100.00;101310.88;4950492;28;20668;-71
2023/03/05 10:22:23;;;;;;;11.40;4.47;;;;;;;6.72;100.00;101295.06;4947584;28;20054;-71
2023/03/05 10:24:56;;;;;;;10.15;4.03;;;;;;;6.75;100.00;101291.59;4947818;28;20545;-71
2023/03/05 10:27:47;;;;;;;4.63;2.35;;;;;;;6.81;100.00;101292.13;4946281;28;20066;-71
2023/03/05 10:30:35;;;;;;;11.65;3.97;;;;;;;6.87;100.00;101287.94;4947050;28;20047;-70
2023/03/05 10:33:16;;;;;;;10.40;3.90;;;;;;;6.80;100.00;101283.09;4951744;28;20166;-70
2023/03/05 10:36:01;;;;;;;9.57;3.33;;;;;;;6.94;100.00;101272.41;4948390;28;20055;-69
2023/03/05 10:38:47;;;;;;;3.90;1.95;;;;;;;7.14;100.00;101282.28;4946507;28;20047;-71
2023/03/05 10:41:43;;;;;;;7.50;3.70;;;;;;;7.26;100.00;101264.84;4952012;28;20098;-71
2023/03/05 10:44:35;;;;;;;10.65;4.13;;;;;;;7.34;100.00;101263.81;4951625;28;20074;-71
2023/03/05 10:47:13;;;;;;;10.85;3.40;;;;;;;7.56;100.00;101265.88;4926403;29;20807;-71
2023/03/05 10:49:48;;;;;;;5.80;2.30;;;;;;;7.43;100.00;101261.66;4951896;29;20047;-69
2023/03/05 10:52:25;;;;;;;;;;;;;;;7.43;100.00;101262.44;4951778;29;20157;-70
2023/03/05 10:54:52;;;;;;;6.90;3.53;;;;;;;7.50;100.00;101262.56;4950966;28;19926;-72
2023/03/05 10:57:25;;;;;;;10.75;3.40;;;;;;;7.54;100.00;101257.97;4958470;28;20786;-72
2023/03/05 11:00:23;;;;;;;4.78;2.78;;;;;;;7.53;100.00;101255.56;4951360;28;20047;-71
2023/03/05 11:03:08;;;;;;;7.20;3.53;;;;;;;7.56;100.00;101249.34;4950320;28;20051;-71
2023/03/05 11:05:41;;;;;;;8.25;3.17;;;;;;;7.68;100.00;101246.41;4947841;28;20077;-72
2023/03/05 11:08:30;;;;;;;6.20;2.83;;;;;;;7.82;100.00;101241.16;4950308;28;20067;-71
2023/03/05 11:11:08;;;;;;;8.75;3.13;;;;;;;7.83;100.00;101239.97;4948682;28;20067;-71
2023/03/05 11:13:57;;;;;;;7.38;2.95;;;;;;;7.86;100.00;101236.50;4950313;28;20063;-71
2023/03/05 11:16:25;;;;;;;7.43;2.47;;;;;;;7.86;100.00;101233.75;4932129;29;20122;-72
2023/03/05 11:19:16;;;;;;;5.18;2.75;;;;;;;7.89;100.00;101231.06;4949417;28;20062;-70
2023/03/05 11:21:46;;;;;;;9.20;2.00;;;;;;;7.98;100.00;101228.06;4947681;28;20429;-73
2023/03/05 11:24:17;;;;;;;7.78;2.95;;;;;;;8.06;100.00;101229.78;4949611;28;20162;-70
2023/03/05 11:26:49;;;;;;;6.20;3.03;;;;;;;8.04;100.00;101230.13;4949890;28;20051;-69
2023/03/05 11:29:25;;;;;;;14.50;3.03;;;;;;;8.11;100.00;101225.91;4947944;28;20061;-71